Time;durP1;ratioP1;P1;durP2;ratioP2;P2;SDS_P1;SDS_P2;PMS_P1;PMS_P2;Temp;Humidity;BMP_temperature;BMP_pressure;BME280_temperature;BME280_humidity;BME280_pressure;Samples;Min_cycle;Max_cycle;Signal;HPM_P1;HPM_P2
2021/06/11 00:02:25;;;;;;;8.15;4.95;;;;;;;;;;5032285;28;20478;-68
2021/06/11 00:04:51;;;;;;;6.15;5.00;;;;;;;;;;5032509;28;20025;-68
2021/06/11 00:07:17;;;;;;;6.65;4.82;;;;;;;;;;5031681;28;20026;-68
2021/06/11 00:09:43;;;;;;;7.82;4.97;;;;;;;;;;5031465;28;20053;-68
2021/06/11 00:12:09;;;;;;;5.25;4.75;;;;;;;;;;5031521;28;20486;-67
2021/06/11 00:14:35;;;;;;;6.80;5.05;;;;;;;;;;5031678;28;20475;-68
2021/06/11 00:17:01;;;;;;;5.40;4.22;;;;;;;;;;5031102;28;20032;-68
2021/06/11 00:19:27;;;;;;;11.00;5.22;;;;;;;;;;5031652;28;20029;-68
2021/06/11 00:21:55;;;;;;;5.88;4.75;;;;;;;;;;5030432;28;20113;-68
2021/06/11 00:24:21;;;;;;;5.50;4.50;;;;;;;;;;5031264;28;20026;-68
2021/06/11 00:26:47;;;;;;;5.97;4.32;;;;;;;;;;5030870;28;20025;-68
2021/06/11 00:29:13;;;;;;;5.22;4.60;;;;;;;;;;5030997;28;20033;-68
2021/06/11 00:31:40;;;;;;;7.80;5.70;;;;;;;;;;5031285;28;20039;-67
2021/06/11 00:34:06;;;;;;;7.65;4.88;;;;;;;;;;5014476;28;20043;-67
2021/06/11 00:36:32;;;;;;;5.28;4.78;;;;;;;;;;5026021;28;20546;-68
2021/06/11 00:38:58;;;;;;;67.38;50.95;;;;;;;;;;5011458;28;20085;-68
2021/06/11 00:41:24;;;;;;;14.82;11.45;;;;;;;;;;5013967;28;20030;-68
2021/06/11 00:43:50;;;;;;;5.60;4.85;;;;;;;;;;5031224;28;20546;-67
2021/06/11 00:46:16;;;;;;;66.25;39.92;;;;;;;;;;5031240;28;20543;-67
2021/06/11 00:48:42;;;;;;;9.02;6.95;;;;;;;;;;5031870;28;20484;-66
2021/06/11 00:51:08;;;;;;;6.38;4.95;;;;;;;;;;5035176;28;20033;-68
2021/06/11 00:53:34;;;;;;;11.73;7.45;;;;;;;;;;5034989;28;20033;-68
2021/06/11 00:56:00;;;;;;;8.20;5.25;;;;;;;;;;5034908;28;20037;-67
2021/06/11 00:58:26;;;;;;;5.13;4.60;;;;;;;;;;5034344;28;20029;-68
2021/06/11 01:00:52;;;;;;;7.05;4.60;;;;;;;;;;5030247;28;20069;-67
2021/06/11 01:03:18;;;;;;;5.38;4.70;;;;;;;;;;5014020;28;20092;-68
2021/06/11 01:05:44;;;;;;;5.40;4.90;;;;;;;;;;5014997;28;20037;-67
2021/06/11 01:08:11;;;;;;;6.05;4.97;;;;;;;;;;5012615;28;20488;-67
2021/06/11 01:10:38;;;;;;;5.65;4.78;;;;;;;;;;5013669;28;20017;-67
2021/06/11 01:13:04;;;;;;;5.30;4.80;;;;;;;;;;5013615;28;20057;-68
2021/06/11 01:15:30;;;;;;;7.32;5.30;;;;;;;;;;5013637;28;20030;-68
2021/06/11 01:17:56;;;;;;;6.85;4.57;;;;;;;;;;5014733;28;20042;-68
2021/06/11 01:20:23;;;;;;;5.15;4.65;;;;;;;;;;5015129;28;20454;-68
2021/06/11 01:23:04;;;;;;;6.80;5.10;;;;;;;;;;5013763;28;20060;-68
2021/06/11 01:25:52;;;;;;;5.90;4.80;;;;;;;;;;5014933;28;20040;-69
2021/06/11 01:28:19;;;;;;;7.13;4.82;;;;;;;;;;5012783;28;20518;-67
2021/06/11 01:30:45;;;;;;;5.53;4.82;;;;;;;;;;5014546;28;20480;-68
2021/06/11 01:33:12;;;;;;;5.20;4.70;;;;;;;;;;5014000;28;20042;-69
2021/06/11 01:35:47;;;;;;;7.07;5.47;;;;;;;;;;5013052;28;20083;-68
2021/06/11 01:38:16;;;;;;;5.32;4.68;;;;;;;;;;5013744;28;20025;-68
2021/06/11 01:40:43;;;;;;;6.43;5.15;;;;;;;;;;5014533;28;20032;-67
2021/06/11 01:43:09;;;;;;;6.07;4.80;;;;;;;;;;5013254;28;20491;-68
2021/06/11 01:45:35;;;;;;;6.38;4.82;;;;;;;;;;5014176;28;20068;-66
2021/06/11 01:48:01;;;;;;;8.48;5.53;;;;;;;;;;5013522;28;20022;-67
2021/06/11 01:50:32;;;;;;;5.88;4.82;;;;;;;;;;5014029;28;20026;-67
2021/06/11 01:52:59;;;;;;;5.70;5.13;;;;;;;;;;5014160;28;20076;-67
2021/06/11 01:55:26;;;;;;;7.85;5.28;;;;;;;;;;5014499;28;20391;-67
2021/06/11 01:57:53;;;;;;;6.32;5.18;;;;;;;;;;5033286;28;20487;-67
2021/06/11 02:00:19;;;;;;;7.40;5.18;;;;;;;;;;5032561;28;20065;-67
2021/06/11 02:02:45;;;;;;;5.95;4.95;;;;;;;;;;5033398;28;20029;-67
2021/06/11 02:05:11;;;;;;;5.13;4.63;;;;;;;;;;5033629;28;20029;-67
2021/06/11 02:07:38;;;;;;;7.75;5.38;;;;;;;;;;5032967;28;20033;-67
2021/06/11 02:10:05;;;;;;;7.40;5.07;;;;;;;;;;5032350;28;20033;-66
2021/06/11 02:12:31;;;;;;;6.65;5.10;;;;;;;;;;5033317;28;20390;-67
2021/06/11 02:14:58;;;;;;;6.22;5.00;;;;;;;;;;5033388;28;20544;-67
2021/06/11 02:17:25;;;;;;;7.65;5.28;;;;;;;;;;5031608;28;20032;-67
2021/06/11 02:19:51;;;;;;;6.85;5.07;;;;;;;;;;5032096;28;20502;-67
2021/06/11 02:22:17;;;;;;;9.13;5.00;;;;;;;;;;5033412;28;20479;-67
2021/06/11 02:24:43;;;;;;;6.63;5.40;;;;;;;;;;5032036;28;20021;-66
2021/06/11 02:27:11;;;;;;;5.75;5.13;;;;;;;;;;5031347;28;20472;-67
2021/06/11 02:29:37;;;;;;;5.38;4.88;;;;;;;;;;5032292;28;20067;-67
2021/06/11 02:32:05;;;;;;;7.15;5.80;;;;;;;;;;5031701;28;20064;-67
2021/06/11 02:34:31;;;;;;;6.10;5.10;;;;;;;;;;5012816;28;20060;-67
2021/06/11 02:36:57;;;;;;;5.63;5.03;;;;;;;;;;5012569;28;20442;-68
2021/06/11 02:39:24;;;;;;;6.88;5.15;;;;;;;;;;5013230;28;20492;-66
2021/06/11 02:41:52;;;;;;;6.75;5.00;;;;;;;;;;5013088;28;20038;-66
2021/06/11 02:44:20;;;;;;;6.80;5.10;;;;;;;;;;5028476;28;20029;-67
2021/06/11 02:46:48;;;;;;;7.72;5.28;;;;;;;;;;5027585;28;20029;-67
2021/06/11 02:49:14;;;;;;;5.18;4.68;;;;;;;;;;5013030;28;20054;-66
2021/06/11 02:51:43;;;;;;;6.00;5.13;;;;;;;;;;5028245;28;20574;-66
2021/06/11 02:54:17;;;;;;;6.25;5.45;;;;;;;;;;5013020;28;20192;-66
2021/06/11 02:56:52;;;;;;;6.15;5.55;;;;;;;;;;5023166;28;20029;-67
2021/06/11 02:59:19;;;;;;;7.32;5.70;;;;;;;;;;5032622;28;20440;-67
2021/06/11 03:01:48;;;;;;;6.10;5.50;;;;;;;;;;5032404;28;20032;-67
2021/06/11 03:04:14;;;;;;;6.07;5.47;;;;;;;;;;5032552;28;20021;-67
2021/06/11 03:06:43;;;;;;;12.75;5.88;;;;;;;;;;5031807;28;20030;-67
2021/06/11 03:09:11;;;;;;;6.15;5.20;;;;;;;;;;5032477;28;20100;-67
2021/06/11 03:11:40;;;;;;;7.53;5.65;;;;;;;;;;5032561;28;20481;-67
2021/06/11 03:14:07;;;;;;;5.97;4.60;;;;;;;;;;5029445;28;20025;-67
2021/06/11 03:16:34;;;;;;;10.25;8.65;;;;;;;;;;5027185;28;20022;-67
2021/06/11 03:19:03;;;;;;;110.28;67.50;;;;;;;;;;5027606;28;20037;-67
2021/06/11 03:21:32;;;;;;;370.90;243.02;;;;;;;;;;5012150;28;20037;-67
2021/06/11 03:24:01;;;;;;;18.35;11.15;;;;;;;;;;5012274;28;20088;-67
2021/06/11 03:26:29;;;;;;;19.00;13.32;;;;;;;;;;5011508;28;20022;-67
2021/06/11 03:28:57;;;;;;;11.30;7.65;;;;;;;;;;5011042;28;20120;-67
2021/06/11 03:31:29;;;;;;;13.90;10.60;;;;;;;;;;5012192;28;20103;-67
2021/06/11 03:33:58;;;;;;;64.75;48.17;;;;;;;;;;5020936;28;20038;-68
2021/06/11 03:36:41;;;;;;;24.60;16.88;;;;;;;;;;5011551;28;20026;-68
2021/06/11 03:39:09;;;;;;;7.13;6.05;;;;;;;;;;5010777;28;20080;-67
2021/06/11 03:41:36;;;;;;;23.10;14.20;;;;;;;;;;5012183;28;20034;-68
2021/06/11 03:44:04;;;;;;;6.97;5.45;;;;;;;;;;5012002;28;20026;-68
2021/06/11 03:46:31;;;;;;;8.00;6.03;;;;;;;;;;5011253;28;20030;-68
2021/06/11 03:48:59;;;;;;;8.20;6.28;;;;;;;;;;5012111;28;20403;-67
2021/06/11 03:51:26;;;;;;;10.02;8.20;;;;;;;;;;5010618;28;20400;-68
2021/06/11 03:53:54;;;;;;;7.53;5.95;;;;;;;;;;5017410;28;20064;-67
2021/06/11 03:56:20;;;;;;;13.43;6.45;;;;;;;;;;5030785;28;20021;-67
2021/06/11 03:58:48;;;;;;;9.43;5.95;;;;;;;;;;5031699;28;20565;-68
2021/06/11 04:01:17;;;;;;;7.53;5.28;;;;;;;;;;5031406;28;20036;-67
2021/06/11 04:03:43;;;;;;;10.80;6.80;;;;;;;;;;5031335;28;20499;-67
2021/06/11 04:06:11;;;;;;;5.07;4.43;;;;;;;;;;5030680;28;20083;-67
2021/06/11 04:08:37;;;;;;;6.38;5.22;;;;;;;;;;5031477;28;20044;-68
2021/06/11 04:11:05;;;;;;;9.00;5.50;;;;;;;;;;5030143;28;20079;-68
2021/06/11 04:13:43;;;;;;;7.43;5.88;;;;;;;;;;5031420;28;20478;-67
2021/06/11 04:16:12;;;;;;;9.20;5.30;;;;;;;;;;5030630;28;20048;-68
2021/06/11 04:18:41;;;;;;;6.60;5.40;;;;;;;;;;5031172;28;20076;-67
2021/06/11 04:21:09;;;;;;;6.60;5.63;;;;;;;;;;5031296;28;20033;-68
2021/06/11 04:23:36;;;;;;;6.18;4.82;;;;;;;;;;5032950;28;20109;-67
2021/06/11 04:26:03;;;;;;;8.70;5.00;;;;;;;;;;5037451;28;20038;-66
2021/06/11 04:28:33;;;;;;;6.78;4.60;;;;;;;;;;5036347;28;20043;-68
2021/06/11 04:31:00;;;;;;;6.97;4.63;;;;;;;;;;5037922;28;20029;-68
2021/06/11 04:33:27;;;;;;;8.30;4.75;;;;;;;;;;5052138;22;20099;-69
2021/06/11 04:35:53;;;;;;;6.95;5.22;;;;;;;;;;4998298;28;20441;-68
2021/06/11 04:38:20;;;;;;;5.50;4.57;;;;;;;;;;4996445;28;20072;-68
2021/06/11 04:40:47;;;;;;;5.78;5.10;;;;;;;;;;4998371;28;20675;-69
2021/06/11 04:43:14;;;;;;;6.82;4.63;;;;;;;;;;4997048;28;20026;-70
2021/06/11 04:45:39;;;;;;;5.03;4.55;;;;;;;;;;4998038;28;20038;-70
2021/06/11 04:48:06;;;;;;;6.75;4.50;;;;;;;;;;4997461;28;20027;-69
2021/06/11 04:50:32;;;;;;;10.90;5.28;;;;;;;;;;4996821;28;20022;-69
2021/06/11 04:52:58;;;;;;;7.63;4.60;;;;;;;;;;4998097;28;20030;-69
2021/06/11 04:55:25;;;;;;;7.13;5.00;;;;;;;;;;4998204;28;20026;-71
2021/06/11 04:57:52;;;;;;;6.20;5.05;;;;;;;;;;5016811;28;20033;-71
2021/06/11 05:00:18;;;;;;;8.68;4.70;;;;;;;;;;5017089;28;20049;-70
2021/06/11 05:02:44;;;;;;;5.25;4.75;;;;;;;;;;5017579;28;20022;-71
2021/06/11 05:05:10;;;;;;;4.90;4.43;;;;;;;;;;5017330;28;20029;-71
2021/06/11 05:07:36;;;;;;;9.98;4.82;;;;;;;;;;5016732;28;20041;-70
2021/06/11 05:10:05;;;;;;;6.28;5.57;;;;;;;;;;5017371;28;20104;-70
2021/06/11 05:12:31;;;;;;;6.38;5.28;;;;;;;;;;5017272;28;20025;-71
2021/06/11 05:14:57;;;;;;;11.02;5.00;;;;;;;;;;5017185;28;20021;-68
2021/06/11 05:17:23;;;;;;;7.57;5.47;;;;;;;;;;5016370;28;20029;-70
2021/06/11 05:19:49;;;;;;;9.52;5.32;;;;;;;;;;5017254;28;20100;-70
2021/06/11 05:22:15;;;;;;;6.00;5.40;;;;;;;;;;5015934;28;20018;-70
2021/06/11 05:24:41;;;;;;;13.38;6.07;;;;;;;;;;5016956;28;20101;-70
2021/06/11 05:27:08;;;;;;;6.88;5.07;;;;;;;;;;5001653;28;20026;-70
2021/06/11 05:29:34;;;;;;;8.75;5.22;;;;;;;;;;4995756;28;20022;-70
2021/06/11 05:32:00;;;;;;;6.65;5.05;;;;;;;;;;4995968;28;20040;-69
2021/06/11 05:34:26;;;;;;;8.15;5.10;;;;;;;;;;5014385;28;20465;-70
2021/06/11 05:36:52;;;;;;;7.65;4.55;;;;;;;;;;5011683;28;20221;-70
2021/06/11 05:39:17;;;;;;;14.18;5.72;;;24.20;53.50;;;;;;5012430;28;20033;-68
2021/06/11 05:41:43;;;;;;;11.60;5.95;;;24.80;51.70;;;;;;5013888;28;20072;-69
2021/06/11 05:44:09;;;;;;;11.73;5.35;;;25.20;51.00;;;;;;5013940;28;20029;-70
2021/06/11 05:46:35;;;;;;;10.10;4.97;;;25.80;49.60;;;;;;5013281;28;20034;-69
2021/06/11 05:49:00;;;;;;;6.35;4.90;;;26.20;48.20;;;;;;5013830;28;20025;-70
2021/06/11 05:51:26;;;;;;;7.25;4.65;;;26.20;48.80;;;;;;5013873;28;20037;-70
2021/06/11 05:53:52;;;;;;;8.30;5.00;;;26.30;47.60;;;;;;5014055;28;20492;-69
2021/06/11 05:56:18;;;;;;;14.85;5.55;;;25.90;48.30;;;;;;5011523;28;20022;-69
2021/06/11 05:58:45;;;;;;;7.50;5.25;;;25.70;49.30;;;;;;5013208;28;20100;-70
2021/06/11 06:01:11;;;;;;;6.85;5.40;;;25.50;49.80;;;;;;5013527;28;20030;-69
2021/06/11 06:03:36;;;;;;;10.13;5.50;;;25.80;49.10;;;;;;5013503;28;20294;-68
2021/06/11 06:06:02;;;;;;;5.00;3.92;;;;;;;;;;5012998;28;20088;-68
2021/06/11 06:08:31;;;;;;;8.50;5.13;;;;;;;;;;5013344;28;20033;-69
2021/06/11 06:10:57;;;;;;;8.50;5.05;;;;;;;;;;5011850;28;20041;-68
2021/06/11 06:13:23;;;;;;;6.25;4.82;;;;;;;;;;5004362;28;20472;-70
2021/06/11 06:15:49;;;;;;;11.82;4.93;;;;;;;;;;5011677;28;20022;-69
2021/06/11 06:18:15;;;;;;;8.30;5.00;;;;;;;;;;5012448;28;20030;-70
2021/06/11 06:20:44;;;;;;;7.43;5.20;;;;;;;;;;5011997;28;20029;-70
2021/06/11 06:23:10;;;;;;;9.25;5.57;;;;;;;;;;5011983;28;20116;-69
2021/06/11 06:25:36;;;;;;;7.22;5.15;;;;;;;;;;5013329;28;20544;-71
2021/06/11 06:28:02;;;;;;;6.93;5.47;;;;;;;;;;5012279;28;20506;-70
2021/06/11 06:30:28;;;;;;;5.88;4.78;;;;;;;;;;5012885;28;20026;-70
2021/06/11 06:32:54;;;;;;;10.07;4.63;;;;;;;;;;5013062;28;20029;-70
2021/06/11 06:35:20;;;;;;;10.00;4.85;;;;;;;;;;5012772;28;20214;-71
2021/06/11 06:37:46;;;;;;;8.40;4.30;;;;;;;;;;5012420;28;20124;-70
2021/06/11 06:40:12;;;;;;;6.47;4.45;;;;;;;;;;5013069;28;20026;-71
2021/06/11 06:42:38;;;;;;;7.22;4.05;;;;;;;;;;5012882;28;20511;-70
2021/06/11 06:45:05;;;;;;;5.30;4.72;;;;;;;;;;5012871;28;20419;-70
2021/06/11 06:47:31;;;;;;;6.63;4.40;;;;;;;;;;5005921;28;20033;-67
2021/06/11 06:49:58;;;;;;;6.07;4.35;;;;;;;;;;5003050;28;20040;-67
2021/06/11 06:52:24;;;;;;;5.63;4.22;;;;;;;;;;5011788;28;20076;-68
2021/06/11 06:54:50;;;;;;;5.72;4.10;;;;;;;;;;5012627;28;20022;-67
2021/06/11 06:57:16;;;;;;;6.68;4.82;;;;;;;;;;5011443;28;20455;-68
2021/06/11 06:59:43;;;;;;;9.85;4.57;;;;;;;;;;5012029;28;20053;-66
2021/06/11 07:02:10;;;;;;;4.70;4.30;;;;;;;;;;5012636;28;20022;-66
2021/06/11 07:04:36;;;;;;;8.15;4.88;;;;;;;;;;5010982;28;20053;-66
2021/06/11 07:07:02;;;;;;;5.82;4.60;;;;;;;;;;5011629;28;20027;-67
2021/06/11 07:09:28;;;;;;;4.88;4.38;;;;;;;;;;5012367;28;20463;-67
2021/06/11 07:11:54;;;;;;;7.70;5.10;;;;;;;;;;5012919;28;20400;-68
2021/06/11 07:14:20;;;;;;;9.13;4.90;;;;;;;;;;5012493;28;20132;-67
2021/06/11 07:16:48;;;;;;;7.28;5.50;;;;;;;;;;5012216;28;20450;-70
2021/06/11 07:19:14;;;;;;;5.25;4.05;;;;;;;;;;5011604;28;20054;-70
2021/06/11 07:21:40;;;;;;;7.97;4.55;;;;;;;;;;5014489;28;20032;-68
2021/06/11 07:24:07;;;;;;;6.72;4.55;;;33.60;32.70;;;;;;5014152;28;20030;-70
2021/06/11 07:26:32;;;;;;;5.53;4.35;;;34.30;30.40;;;;;;5011332;28;20045;-70
2021/06/11 07:28:58;;;;;;;8.20;4.78;;;34.40;30.40;;;;;;5003293;28;20117;-69
2021/06/11 07:31:25;;;;;;;8.00;4.65;;;34.40;29.90;;;;;;5003241;28;20034;-70
2021/06/11 07:33:51;;;;;;;5.78;4.40;;;;;;;;;;4999139;28;20026;-69
2021/06/11 07:36:16;;;;;;;56.75;51.30;;;37.00;27.60;;;;;;4995772;28;20025;-69
2021/06/11 07:38:42;;;;;;;42.38;32.45;;;37.50;27.50;;;;;;5009175;28;20029;-71
2021/06/11 07:41:07;;;;;;;9.73;6.53;;;38.00;26.40;;;;;;5006870;28;20552;-71
2021/06/11 07:43:33;;;;;;;12.18;10.32;;;37.90;26.00;;;;;;4997771;28;20025;-70
2021/06/11 07:45:59;;;;;;;9.73;7.43;;;37.90;25.90;;;;;;4997368;28;20389;-68
2021/06/11 07:48:24;;;;;;;5.32;4.78;;;37.50;26.30;;;;;;5004402;28;20353;-68
2021/06/11 07:50:50;;;;;;;50.75;42.45;;;37.60;25.60;;;;;;5004164;28;20048;-70
2021/06/11 07:53:16;;;;;;;42.25;29.10;;;37.50;25.90;;;;;;5004884;28;20076;-69
2021/06/11 07:55:42;;;;;;;12.93;7.80;;;37.90;24.70;;;;;;5005952;28;20029;-70
2021/06/11 07:58:07;;;;;;;12.93;10.25;;;37.40;25.90;;;;;;4991404;28;20037;-68
2021/06/11 08:00:33;;;;;;;11.43;6.95;;;37.50;25.00;;;;;;5003536;28;20045;-70
2021/06/11 08:03:00;;;;;;;7.85;5.82;;;37.70;24.90;;;;;;4996327;28;20025;-70
2021/06/11 08:05:26;;;;;;;9.60;5.80;;;38.40;25.20;;;;;;5007892;28;20061;-69
2021/06/11 08:07:53;;;;;;;10.45;8.40;;;38.40;24.60;;;;;;4997795;28;20026;-69
2021/06/11 08:10:19;;;;;;;14.48;7.35;;;38.20;24.80;;;;;;5004346;28;20034;-71
2021/06/11 08:12:45;;;;;;;7.22;6.28;;;38.40;24.40;;;;;;5010174;28;20044;-68
2021/06/11 08:15:11;;;;;;;7.95;5.53;;;38.30;25.00;;;;;;5010306;28;20025;-70
2021/06/11 08:17:37;;;;;;;11.13;5.80;;;38.30;24.70;;;;;;4995962;28;20018;-71
2021/06/11 08:20:05;;;;;;;12.68;7.05;;;38.40;24.60;;;;;;4991919;28;20037;-71
2021/06/11 08:22:30;;;;;;;17.52;7.80;;;37.40;25.70;;;;;;4991522;28;20030;-69
2021/06/11 08:24:56;;;;;;;10.18;7.80;;;37.70;26.10;;;;;;4995602;28;20022;-71
2021/06/11 08:27:22;;;;;;;6.95;6.05;;;37.50;25.60;;;;;;5010356;28;20026;-71
2021/06/11 08:29:47;;;;;;;7.65;5.82;;;37.80;26.00;;;;;;5003137;28;20031;-70
2021/06/11 08:32:13;;;;;;;8.40;5.75;;;38.20;25.00;;;;;;4999544;28;20022;-69
2021/06/11 08:34:39;;;;;;;14.25;6.50;;;38.40;24.70;;;;;;5006891;28;20037;-71
2021/06/11 08:37:07;;;;;;;9.95;7.43;;;38.00;25.40;;;;;;5009871;28;20022;-71
2021/06/11 08:39:33;;;;;;;7.88;6.25;;;38.50;24.60;;;;;;5010571;28;20033;-71
2021/06/11 08:41:59;;;;;;;5.57;5.07;;;38.40;25.20;;;;;;5026303;28;20030;-71
2021/06/11 08:44:28;;;;;;;12.07;5.57;;;38.20;25.70;;;;;;5011367;28;20026;-71
2021/06/11 08:46:54;;;;;;;11.30;7.47;;;37.90;25.00;;;;;;5010269;28;20399;-71
2021/06/11 08:49:23;;;;;;;6.68;6.07;;;36.60;27.00;;;;;;5004645;28;20516;-71
2021/06/11 08:51:50;;;;;;;6.78;6.18;;;36.50;27.20;;;;;;4997737;28;20038;-71
2021/06/11 08:54:16;;;;;;;12.57;7.93;;;36.50;27.40;;;;;;5006413;28;20213;-71
2021/06/11 08:56:42;;;;;;;6.43;5.53;;;36.50;27.60;;;;;;4995157;28;20022;-70
2021/06/11 08:59:08;;;;;;;7.95;6.13;;;35.80;28.10;;;;;;5009718;28;20105;-70
2021/06/11 09:01:33;;;;;;;8.80;6.55;;;35.90;29.10;;;;;;4994613;28;20106;-71
2021/06/11 09:03:59;;;;;;;12.93;6.25;;;36.90;28.30;;;;;;4990607;28;20033;-70
2021/06/11 09:06:25;;;;;;;6.82;5.72;;;37.50;26.50;;;;;;4995789;28;20029;-71
2021/06/11 09:08:54;;;;;;;10.80;6.80;;;37.40;26.40;;;;;;5009430;28;20029;-70
2021/06/11 09:11:25;;;;;;;11.90;5.88;;;37.90;25.50;;;;;;5014034;28;20116;-70
2021/06/11 09:14:09;;;;;;;6.82;5.45;;;37.50;25.10;;;;;;5014749;28;20060;-70
2021/06/11 09:16:48;;;;;;;7.70;4.45;;;37.50;24.40;;;;;;5013553;28;20033;-71
2021/06/11 09:19:24;;;;;;;10.05;5.28;;;36.70;25.30;;;;;;5014338;28;20029;-70
2021/06/11 09:21:51;;;;;;;8.48;5.43;;;36.80;25.70;;;;;;5014429;28;20025;-70
2021/06/11 09:24:27;;;;;;;6.65;5.30;;;35.40;26.90;;;;;;5013143;28;20049;-70
2021/06/11 09:27:04;;;;;;;5.00;4.38;;;35.30;27.60;;;;;;5013326;28;20018;-69
2021/06/11 09:29:32;;;;;;;6.75;4.60;;;35.40;28.20;;;;;;5014248;28;20056;-69
2021/06/11 09:32:19;;;;;;;10.45;5.57;;;35.50;27.50;;;;;;5013136;28;20029;-70
2021/06/11 09:34:56;;;;;;;9.40;5.97;;;35.70;28.30;;;;;;5012823;28;20042;-70
2021/06/11 09:37:29;;;;;;;8.02;4.97;;;36.10;27.70;;;;;;5011749;28;20377;-70
2021/06/11 09:40:12;;;;;;;7.53;5.75;;;36.00;27.50;;;;;;4991368;28;20077;-70
2021/06/11 09:42:43;;;;;;;6.07;3.70;;;35.90;27.20;;;;;;5014061;28;20030;-69
2021/06/11 09:45:11;;;;;;;8.48;5.15;;;35.90;26.60;;;;;;5010236;28;20037;-70
2021/06/11 09:47:38;;;;;;;10.63;6.68;;;35.60;26.80;;;;;;5000805;28;20484;-70
2021/06/11 09:50:06;;;;;;;11.18;5.65;;;35.70;27.70;;;;;;5013967;28;20048;-70
2021/06/11 09:52:36;;;;;;;8.50;4.35;;;35.80;26.10;;;;;;5009218;28;20019;-70
2021/06/11 09:55:06;;;;;;;9.18;5.68;;;35.20;26.90;;;;;;5005839;28;20026;-70
2021/06/11 09:57:36;;;;;;;7.88;5.00;;;34.70;27.90;;;;;;5000309;28;20030;-70
2021/06/11 10:00:04;;;;;;;6.27;5.30;;;34.50;27.70;;;;;;4998618;28;20026;-70
2021/06/11 10:02:31;;;;;;;5.47;4.85;;;34.20;28.70;;;;;;4998841;28;20079;-70
2021/06/11 10:04:59;;;;;;;6.70;4.63;;;34.30;28.90;;;;;;5008311;28;20037;-71
2021/06/11 10:07:24;;;;;;;14.27;4.55;;;34.00;29.40;;;;;;5010321;28;20387;-70
2021/06/11 10:09:50;;;;;;;9.05;5.57;;;33.60;29.70;;;;;;5011918;28;20034;-70
2021/06/11 10:12:16;;;;;;;9.13;6.60;;;33.80;29.80;;;;;;5013249;28;20037;-70
2021/06/11 10:14:41;;;;;;;5.05;3.65;;;33.50;31.00;;;;;;5013475;28;20547;-71
2021/06/11 10:17:08;;;;;;;6.45;5.40;;;33.70;29.90;;;;;;5012008;28;20109;-69
2021/06/11 10:19:35;;;;;;;4.90;4.18;;;33.70;30.20;;;;;;5013209;28;20040;-71
2021/06/11 10:22:00;;;;;;;9.20;5.78;;;33.20;29.00;;;;;;5006371;28;20041;-71
2021/06/11 10:24:27;;;;;;;6.40;3.92;;;32.60;30.90;;;;;;4993227;28;20022;-70
2021/06/11 10:26:53;;;;;;;5.15;3.72;;;32.40;30.10;;;;;;5005326;28;20022;-70
2021/06/11 10:29:20;;;;;;;9.68;6.43;;;32.50;30.30;;;;;;4993410;28;20034;-70
2021/06/11 10:31:47;;;;;;;7.88;4.80;;;32.00;30.00;;;;;;4993541;28;20114;-68
2021/06/11 10:34:13;;;;;;;5.13;3.60;;;31.30;31.50;;;;;;5042759;23;20056;-70
2021/06/11 10:36:43;;;;;;;8.13;4.18;;;;;;;;;;5071829;28;20035;-71
2021/06/11 10:39:15;;;;;;;6.63;3.63;;;;;;;;;;5054398;28;20103;-70
2021/06/11 10:41:55;;;;;;;7.65;3.15;;;;;;;;;;5072528;28;20036;-70
2021/06/11 10:44:40;;;;;;;4.60;3.40;;;;;;;;;;5072665;28;20032;-69
2021/06/11 10:47:18;;;;;;;8.27;4.47;;;;;;;;;;5072137;28;20028;-70
2021/06/11 10:50:02;;;;;;;6.95;3.58;;;;;;;;;;5072801;28;20066;-69
2021/06/11 10:52:43;;;;;;;6.95;3.15;;;;;;;;;;5061795;28;20088;-68
2021/06/11 10:55:18;;;;;;;4.20;2.80;;;;;;;;;;5034336;28;20071;-68
2021/06/11 10:57:45;;;;;;;14.23;6.60;;;;;;;;;;5051969;28;20092;-70
2021/06/11 11:00:23;;;;;;;14.27;7.00;;;;;;;;;;5052490;28;20029;-68
2021/06/11 11:02:50;;;;;;;12.65;5.88;;;;;;;;;;5052582;28;20021;-69
2021/06/11 11:05:25;;;;;;;3.50;3.17;;;;;;;;;;5052275;28;20063;-71
2021/06/11 11:07:51;;;;;;;14.13;7.10;;;;;;;;;;5052293;28;20024;-70
2021/06/11 11:10:33;;;;;;;3.95;3.20;;;;;;;;;;5034437;28;20025;-69
2021/06/11 11:12:59;;;;;;;;;;;;;;;;;;5052706;28;20475;-70
2021/06/11 11:15:34;;;;;;;5.05;3.38;;;;;;;;;;5043383;28;19999;-70
2021/06/11 11:18:00;;;;;;;4.68;2.55;;;;;;;;;;5050239;28;20025;-69
2021/06/11 11:20:30;;;;;;;3.80;3.13;;;;;;;;;;5047878;28;20033;-70
2021/06/11 11:23:00;;;;;;;8.82;4.07;;;;;;;;;;5051733;28;20021;-71
2021/06/11 11:25:26;;;;;;;4.88;2.83;;;;;;;;;;5058577;28;20509;-70
2021/06/11 11:27:53;;;;;;;4.03;3.00;;;;;;;;;;5060587;28;20093;-70
2021/06/11 11:30:20;;;;;;;5.78;2.90;;;;;;;;;;5053791;28;20375;-71
2021/06/11 11:32:46;;;;;;;4.93;2.90;;;;;;;;;;5072196;28;20036;-71
2021/06/11 11:35:16;;;;;;;4.32;3.08;;;;;;;;;;5053693;28;20513;-71
2021/06/11 11:37:42;;;;;;;5.05;3.15;;;;;;;;;;5052559;28;20479;-71
2021/06/11 11:40:08;;;;;;;5.18;3.10;;;;;;;;;;5063684;28;20445;-70
2021/06/11 11:42:34;;;;;;;4.18;2.63;;;;;;;;;;5034128;28;20078;-69
2021/06/11 11:45:00;;;;;;;6.15;3.33;;;;;;;;;;5057818;28;20065;-70
2021/06/11 11:47:26;;;;;;;5.53;3.22;;;;;;;;;;5052990;28;20035;-70
2021/06/11 11:49:52;;;;;;;5.70;3.33;;;;;;;;;;5071485;28;20481;-69
2021/06/11 11:52:18;;;;;;;5.32;3.20;;;;;;;;;;5067317;28;20058;-69
2021/06/11 11:54:44;;;;;;;8.30;3.40;;;;;;;;;;5039197;28;20122;-71
2021/06/11 11:57:10;;;;;;;6.78;3.83;;;;;;;;;;5049880;28;20025;-69
2021/06/11 11:59:36;;;;;;;5.70;3.78;;;;;;;;;;5067599;28;20032;-70
2021/06/11 12:02:02;;;;;;;3.40;3.10;;;;;;;;;;5071123;28;20033;-70
2021/06/11 12:04:28;;;;;;;5.45;3.42;;;;;;;;;;5071198;28;20024;-69
2021/06/11 12:06:54;;;;;;;11.77;3.83;;;;;;;;;;5044331;28;20021;-70
2021/06/11 12:09:20;;;;;;;4.72;3.45;;;;;;;;;;5052137;28;20360;-70
2021/06/11 12:11:46;;;;;;;5.47;3.42;;;;;;;;;;5033341;28;20045;-70
2021/06/11 12:14:12;;;;;;;5.72;3.60;;;;;;;;;;5051349;28;20035;-69
2021/06/11 12:16:38;;;;;;;6.35;3.90;;;;;;;;;;5049879;28;20095;-70
2021/06/11 12:19:04;;;;;;;5.93;3.50;;;;;;;;;;5036372;28;20376;-68
2021/06/11 12:21:30;;;;;;;6.85;3.88;;;;;;;;;;5041168;28;20025;-69
2021/06/11 12:23:56;;;;;;;5.30;3.40;;;;;;;;;;5065884;28;20107;-68
2021/06/11 12:26:22;;;;;;;6.40;3.42;;;;;;;;;;5050130;28;20040;-70
2021/06/11 12:28:48;;;;;;;5.25;3.58;;;;;;;;;;5068459;28;20036;-70
2021/06/11 12:31:14;;;;;;;10.55;5.75;;;;;;;;;;5053051;28;20021;-69
2021/06/11 12:33:40;;;;;;;7.13;3.70;;;;;;;;;;5063783;28;20034;-69
2021/06/11 12:36:06;;;;;;;7.97;3.50;;;;;;;;;;5054828;28;20036;-70
2021/06/11 12:38:33;;;;;;;4.50;3.45;;;;;;;;;;5056034;28;20062;-69
2021/06/11 12:41:00;;;;;;;7.90;3.30;;;;;;;;;;5051961;28;20162;-67
2021/06/11 12:44:14;;;;;;;5.68;3.55;;;;;;;;;;5057600;28;20067;-70
2021/06/11 12:46:12;;;;;;;4.18;3.78;;;;;;;;;;5062944;28;20487;-69
2021/06/11 12:48:38;;;;;;;3.70;3.35;;;;;;;;;;5054620;28;20104;-69
2021/06/11 12:51:04;;;;;;;4.80;3.33;;;;;;;;;;5060607;28;20032;-69
2021/06/11 12:53:30;;;;;;;3.45;3.10;;;;;;;;;;5062345;28;20029;-70
2021/06/11 12:55:56;;;;;;;5.80;3.05;;;;;;;;;;5062066;28;20047;-67
2021/06/11 12:58:22;;;;;;;6.25;3.67;;;;;;;;;;5055366;28;20020;-69
2021/06/11 13:00:48;;;;;;;3.83;3.28;;;;;;;;;;5074108;28;20096;-69
2021/06/11 13:03:14;;;;;;;6.68;3.20;;;;;;;;;;5056439;28;20143;-69
2021/06/11 13:05:40;;;;;;;6.38;3.40;;;;;;;;;;5056684;28;20032;-70
2021/06/11 13:08:06;;;;;;;6.22;3.58;;;;;;;;;;5072461;28;20028;-70
2021/06/11 13:10:32;;;;;;;7.25;3.92;;;;;;;;;;5056554;28;20067;-71
2021/06/11 13:12:58;;;;;;;7.25;4.00;;;;;;;;;;5074193;28;20770;-70
2021/06/11 13:15:24;;;;;;;3.45;3.15;;;;;;;;;;5067707;28;20502;-69
2021/06/11 13:17:50;;;;;;;7.10;5.10;;;;;;;;;;5037587;28;20467;-70
2021/06/11 13:20:16;;;;;;;3.97;2.60;;;;;;;;;;5039425;28;20044;-70
2021/06/11 13:22:44;;;;;;;3.15;2.50;;;;;;;;;;5072306;28;20538;-70
2021/06/11 13:25:10;;;;;;;3.72;2.53;;;;;;;;;;5066448;28;20021;-70
2021/06/11 13:27:36;;;;;;;4.75;2.65;;;;;;;;;;5053296;28;20483;-70
2021/06/11 13:30:03;;;;;;;4.25;2.72;;;;;;;;;;5061789;28;20047;-70
2021/06/11 13:32:29;;;;;;;5.70;2.88;;;;;;;;;;5073670;28;20115;-68
2021/06/11 13:34:56;;;;;;;4.38;3.28;;;;;;;;;;5073767;28;20036;-69
2021/06/11 13:37:22;;;;;;;4.72;3.88;;;;;;;;;;5057825;28;20021;-71
2021/06/11 13:39:48;;;;;;;5.47;3.90;;;;;;;;;;5054344;28;20021;-69
2021/06/11 13:42:14;;;;;;;4.85;3.60;;;;;;;;;;5054058;28;20367;-68
2021/06/11 13:44:39;;;;;;;4.50;4.10;;;;;;;;;;5036189;28;20017;-68
2021/06/11 13:47:10;;;;;;;10.02;4.95;;;;;;;;;;5052920;28;20036;-69
2021/06/11 13:49:36;;;;;;;4.37;3.93;;;;;;;;;;5054898;28;20108;-68
2021/06/11 13:52:02;;;;;;;7.20;4.85;;;;;;;;;;5064508;28;20104;-66
2021/06/11 13:54:30;;;;;;;6.80;4.57;;;;;;;;;;5073683;28;20126;-67
2021/06/11 13:56:56;;;;;;;6.72;4.10;;;;;;;;;;5053148;28;20456;-68
2021/06/11 13:59:22;;;;;;;6.80;4.22;;;;;;;;;;5053474;28;20021;-67
2021/06/11 14:01:48;;;;;;;5.90;5.03;;;;;;;;;;5069472;28;20060;-67
2021/06/11 14:04:14;;;;;;;5.20;4.20;;;;;;;;;;5071124;28;20081;-67
2021/06/11 14:06:40;;;;;;;7.63;4.53;;;;;;;;;;5035223;28;20123;-67
2021/06/11 14:09:06;;;;;;;6.75;5.32;;;;;;;;;;5036593;28;20044;-65